createdAt,value
2018-08-20T00:00:34.589Z,89.70
2018-08-20T00:02:37.396Z,89.60
2018-08-20T00:04:45.295Z,89.70
2018-08-20T00:06:53.074Z,89.70
2018-08-20T00:08:55.390Z,89.80
2018-08-20T00:10:57.887Z,90.10
2018-08-20T00:13:00.088Z,90.50
2018-08-20T00:15:02.291Z,90.40
2018-08-20T00:17:04.534Z,90.90
2018-08-20T00:19:10.986Z,90.90
2018-08-20T00:21:13.151Z,91.10
2018-08-20T00:23:15.314Z,90.80
2018-08-20T00:25:18.686Z,90.90
2018-08-20T00:27:21.147Z,90.80
2018-08-20T00:29:23.336Z,91.30
2018-08-20T00:31:25.485Z,91.10
2018-08-20T00:33:27.615Z,91.60
2018-08-20T00:35:29.870Z,92.00
2018-08-20T00:37:32.106Z,92.20
2018-08-20T00:39:34.286Z,92.30
2018-08-20T00:41:36.435Z,92.40
2018-08-20T00:43:38.579Z,92.70
2018-08-20T00:45:41.429Z,92.80
2018-08-20T00:47:43.574Z,92.50
2018-08-20T00:49:45.709Z,92.80
2018-08-20T00:51:47.866Z,92.70
2018-08-20T00:53:50.011Z,92.80
2018-08-20T00:55:52.178Z,92.80
2018-08-20T00:57:54.422Z,92.70
2018-08-20T00:59:56.559Z,93.40
2018-08-20T01:01:58.727Z,93.70
2018-08-20T01:04:01.557Z,93.80
2018-08-20T01:06:03.730Z,94.00
2018-08-20T01:08:05.954Z,93.80
2018-08-20T01:10:08.173Z,93.80
2018-08-20T01:12:10.345Z,94.00
2018-08-20T01:14:12.474Z,94.40
2018-08-20T01:16:14.658Z,94.60
2018-08-20T01:18:23.539Z,94.70
2018-08-20T01:20:25.698Z,94.60
2018-08-20T01:22:27.845Z,94.60
2018-08-20T01:24:30.026Z,95.00
2018-08-20T01:26:32.190Z,95.00
2018-08-20T01:28:34.315Z,95.00
2018-08-20T01:30:36.424Z,95.20
2018-08-20T01:32:38.562Z,95.20
2018-08-20T01:34:40.720Z,95.10
2018-08-20T01:36:42.978Z,95.10
2018-08-20T01:38:45.813Z,95.10
2018-08-20T01:40:47.974Z,95.00
2018-08-20T01:42:50.141Z,95.10
2018-08-20T01:44:52.311Z,95.20
2018-08-20T01:46:54.488Z,95.20
2018-08-20T01:48:56.654Z,95.40
2018-08-20T01:50:58.786Z,95.40
2018-08-20T01:53:00.954Z,95.40
2018-08-20T01:55:03.320Z,95.10
2018-08-20T01:57:06.333Z,95.30
2018-08-20T01:59:08.527Z,95.60
2018-08-20T02:01:10.694Z,95.50
2018-08-20T02:03:13.230Z,95.60
2018-08-20T02:05:15.530Z,95.90
2018-08-20T02:07:17.776Z,95.90
2018-08-20T02:09:20.016Z,96.00
2018-08-20T02:11:22.194Z,96.00
2018-08-20T02:13:24.570Z,96.10
2018-08-20T02:15:26.738Z,96.40
2018-08-20T02:17:28.921Z,96.60
2018-08-20T02:19:31.057Z,96.70
2018-08-20T02:21:33.215Z,96.70
2018-08-20T02:23:35.395Z,96.70
2018-08-20T02:25:37.590Z,96.90
2018-08-20T02:27:39.815Z,96.90
2018-08-20T02:29:42.031Z,96.80
2018-08-20T02:31:44.183Z,96.90
2018-08-20T02:33:46.354Z,96.60
2018-08-20T02:35:48.626Z,96.80
2018-08-20T02:37:50.786Z,96.90
2018-08-20T02:39:52.944Z,97.00
2018-08-20T02:41:55.462Z,96.90
2018-08-20T02:43:57.610Z,96.80
2018-08-20T02:45:59.779Z,97.30
2018-08-20T02:48:01.936Z,97.50
2018-08-20T02:50:04.100Z,97.80
2018-08-20T02:52:06.290Z,97.80
2018-08-20T02:54:08.899Z,97.70
2018-08-20T02:56:11.082Z,98.00
2018-08-20T02:58:13.400Z,98.00
2018-08-20T03:00:15.594Z,98.20
2018-08-20T03:02:17.745Z,98.30
2018-08-20T03:04:19.878Z,98.30
2018-08-20T03:06:22.038Z,98.30
2018-08-20T03:08:24.243Z,98.30
2018-08-20T03:10:26.419Z,98.30
2018-08-20T03:12:28.636Z,98.30
2018-08-20T03:14:30.746Z,98.30
2018-08-20T03:16:33.285Z,98.30
2018-08-20T03:18:35.436Z,98.30
2018-08-20T03:20:37.600Z,98.30
2018-08-20T03:22:39.755Z,98.30
2018-08-20T03:24:41.978Z,98.30
2018-08-20T03:26:44.153Z,98.30
2018-08-20T03:28:46.336Z,98.30
2018-08-20T03:30:48.512Z,98.30
2018-08-20T03:32:50.648Z,98.30
2018-08-20T03:34:52.798Z,98.30
2018-08-20T03:36:55.015Z,98.30
2018-08-20T03:38:57.200Z,98.30
2018-08-20T03:40:59.370Z,98.30
2018-08-20T03:43:01.568Z,98.30
2018-08-20T03:45:04.962Z,98.30
2018-08-20T03:47:07.168Z,98.30
2018-08-20T03:49:09.362Z,98.30
2018-08-20T03:51:11.478Z,98.30
2018-08-20T03:53:13.631Z,98.30
2018-08-20T03:55:15.773Z,98.30
2018-08-20T03:57:17.890Z,98.30
2018-08-20T03:59:31.490Z,98.30
2018-08-20T04:01:33.642Z,98.30
2018-08-20T04:03:35.850Z,98.30
2018-08-20T04:05:38.038Z,98.30
2018-08-20T04:07:40.235Z,98.30
2018-08-20T04:09:42.750Z,98.30
2018-08-20T04:11:44.909Z,98.30
2018-08-20T04:13:47.071Z,98.30
2018-08-20T04:15:49.285Z,98.30
2018-08-20T04:17:51.417Z,98.30
2018-08-20T04:19:53.578Z,98.30
2018-08-20T04:21:55.818Z,98.30
2018-08-20T04:23:57.948Z,98.30
2018-08-20T04:26:00.094Z,98.30
2018-08-20T04:28:02.382Z,98.30
2018-08-20T04:30:04.817Z,98.30
2018-08-20T04:32:07.039Z,98.30
2018-08-20T04:34:09.230Z,98.30
2018-08-20T04:36:11.372Z,98.30
2018-08-20T04:38:13.555Z,98.30
2018-08-20T04:40:15.737Z,98.30
2018-08-20T04:42:18.050Z,98.30
2018-08-20T04:44:20.110Z,98.30
2018-08-20T04:46:22.310Z,98.30
2018-08-20T04:48:24.428Z,98.30
2018-08-20T04:50:27.234Z,98.30
2018-08-20T04:52:29.262Z,98.30
2018-08-20T04:54:31.420Z,98.30
2018-08-20T04:56:33.614Z,98.30
2018-08-20T04:58:35.766Z,98.30
2018-08-20T05:00:37.894Z,98.30
2018-08-20T05:02:40.039Z,98.30
2018-08-20T05:04:42.204Z,98.30
2018-08-20T05:06:44.369Z,98.30
2018-08-20T05:08:46.643Z,98.30
2018-08-20T05:10:48.799Z,98.30
2018-08-20T05:12:50.949Z,98.30
2018-08-20T05:14:53.102Z,98.30
2018-08-20T05:16:55.238Z,98.30
2018-08-20T05:18:57.442Z,98.30
2018-08-20T05:20:59.696Z,98.30
2018-08-20T05:23:01.878Z,98.30
2018-08-20T05:25:04.413Z,98.30
2018-08-20T05:27:06.662Z,98.30
2018-08-20T05:29:08.862Z,98.30
2018-08-20T05:31:11.103Z,98.30
2018-08-20T05:33:13.275Z,98.30
2018-08-20T05:35:15.449Z,98.30
2018-08-20T05:37:17.610Z,98.30
2018-08-20T05:39:19.798Z,98.30
2018-08-20T05:41:21.978Z,98.30
2018-08-20T05:43:24.109Z,98.30
2018-08-20T05:45:26.256Z,98.30
2018-08-20T05:47:28.374Z,98.30
2018-08-20T05:49:30.466Z,98.30
2018-08-20T05:51:32.691Z,98.30
2018-08-20T05:53:34.862Z,98.30
2018-08-20T05:55:37.046Z,98.30
2018-08-20T05:57:39.211Z,98.30
2018-08-20T05:59:41.359Z,98.30
2018-08-20T06:01:43.505Z,98.30
2018-08-20T06:03:45.760Z,98.30
2018-08-20T06:05:48.005Z,98.30
2018-08-20T06:07:50.178Z,98.30
2018-08-20T06:09:52.309Z,98.30
2018-08-20T06:11:54.433Z,98.30
2018-08-20T06:13:56.601Z,98.30
2018-08-20T06:15:58.744Z,98.30
2018-08-20T06:18:00.928Z,98.30
2018-08-20T06:20:03.143Z,98.30
2018-08-20T06:22:05.332Z,98.30
2018-08-20T06:24:07.507Z,98.30
2018-08-20T06:26:09.917Z,98.30
2018-08-20T06:28:12.047Z,98.30
2018-08-20T06:30:16.470Z,98.30
2018-08-20T06:32:18.698Z,98.30
2018-08-20T06:34:20.906Z,98.30
2018-08-20T06:36:23.028Z,98.30
2018-08-20T06:38:25.155Z,98.30
2018-08-20T06:40:27.647Z,98.30
2018-08-20T06:42:29.768Z,98.30
2018-08-20T06:44:31.879Z,98.30
2018-08-20T06:46:34.142Z,98.30
2018-08-20T06:48:36.310Z,98.30
2018-08-20T06:50:38.448Z,98.30
2018-08-20T06:52:42.150Z,98.30
2018-08-20T06:54:44.284Z,98.30
2018-08-20T06:56:46.458Z,98.30
2018-08-20T06:58:48.629Z,98.30
2018-08-20T07:00:55.606Z,98.30
2018-08-20T07:02:57.848Z,98.30
2018-08-20T07:04:59.966Z,98.30
2018-08-20T07:07:02.444Z,98.30
2018-08-20T07:09:05.147Z,98.30
2018-08-20T07:11:07.327Z,98.30
2018-08-20T07:13:19.862Z,98.30
2018-08-20T07:15:22.023Z,98.30
2018-08-20T07:17:24.291Z,98.30
2018-08-20T07:19:26.997Z,98.30
2018-08-20T07:21:29.450Z,98.30
2018-08-20T07:23:31.675Z,98.30
2018-08-20T07:25:33.801Z,98.30
2018-08-20T07:27:36.739Z,98.30
2018-08-20T07:29:40.546Z,98.30
2018-08-20T07:31:42.702Z,98.30
2018-08-20T07:33:45.184Z,98.30
2018-08-20T07:35:47.409Z,98.30
2018-08-20T07:37:49.546Z,98.30
2018-08-20T07:39:51.897Z,98.30
2018-08-20T07:41:54.055Z,98.30
2018-08-20T07:43:56.228Z,98.30
2018-08-20T07:45:58.443Z,98.30
2018-08-20T07:48:00.606Z,98.30
2018-08-20T07:50:02.771Z,98.30
2018-08-20T07:52:05.614Z,98.30
2018-08-20T07:54:07.896Z,98.30
2018-08-20T07:56:10.042Z,98.30
2018-08-20T07:58:12.207Z,98.30
2018-08-20T08:00:14.706Z,98.30
2018-08-20T08:02:16.894Z,98.30
2018-08-20T08:04:19.034Z,98.30
2018-08-20T08:06:21.214Z,98.30
2018-08-20T08:08:23.538Z,98.30
2018-08-20T08:10:25.740Z,98.30
2018-08-20T08:12:27.965Z,98.30
2018-08-20T08:14:30.288Z,98.30
2018-08-20T08:16:32.546Z,98.30
2018-08-20T08:18:34.714Z,98.30
2018-08-20T08:20:36.989Z,98.30
2018-08-20T08:22:39.841Z,98.30
2018-08-20T08:24:42.036Z,98.30
2018-08-20T08:26:44.424Z,98.30
2018-08-20T08:28:46.558Z,98.30
2018-08-20T08:30:48.786Z,98.30
2018-08-20T08:32:57.759Z,98.30
2018-08-20T08:34:59.935Z,98.20
2018-08-20T08:37:02.234Z,96.30
2018-08-20T08:39:07.599Z,96.40
2018-08-20T08:41:09.729Z,95.10
2018-08-20T08:43:12.039Z,94.20
2018-08-20T08:45:16.303Z,92.60
2018-08-20T08:47:18.509Z,91.70
2018-08-20T08:49:20.681Z,92.60
2018-08-20T08:51:22.894Z,92.90
2018-08-20T08:53:25.214Z,93.90
2018-08-20T08:55:27.386Z,95.60
2018-08-20T08:57:29.514Z,95.30
2018-08-20T08:59:32.398Z,95.00
2018-08-20T09:01:34.642Z,95.80
2018-08-20T09:03:36.828Z,95.90
2018-08-20T09:05:39.050Z,97.00
2018-08-20T09:07:42.527Z,96.30
2018-08-20T09:09:44.802Z,96.60
2018-08-20T09:11:47.007Z,96.60
2018-08-20T09:13:49.197Z,97.40
2018-08-20T09:15:51.334Z,98.10
2018-08-20T09:17:53.544Z,97.10
2018-08-20T09:19:55.694Z,96.90
2018-08-20T09:21:57.929Z,97.80
2018-08-20T09:24:00.155Z,97.90
2018-08-20T09:26:02.291Z,96.80
2018-08-20T09:28:04.450Z,95.90
2018-08-20T09:30:15.027Z,94.30
2018-08-20T09:32:17.194Z,94.00
2018-08-20T09:34:19.314Z,94.50
2018-08-20T09:36:21.494Z,94.30
2018-08-20T09:38:23.655Z,94.20
2018-08-20T09:40:25.809Z,94.00
2018-08-20T09:42:28.026Z,93.10
2018-08-20T09:44:30.152Z,95.50
2018-08-20T09:46:32.744Z,95.70
2018-08-20T09:48:34.907Z,95.50
2018-08-20T09:50:37.033Z,96.00
2018-08-20T09:52:39.227Z,96.50
2018-08-20T09:54:41.350Z,96.00
2018-08-20T09:56:43.535Z,96.60
2018-08-20T09:58:45.697Z,96.70
2018-08-20T10:00:47.883Z,96.40
2018-08-20T10:02:50.937Z,95.60
2018-08-20T10:04:53.078Z,96.10
2018-08-20T10:06:55.403Z,95.80
2018-08-20T10:08:57.615Z,94.50
2018-08-20T10:11:00.518Z,93.80
2018-08-20T10:13:02.803Z,93.10
2018-08-20T10:15:04.988Z,92.10
2018-08-20T10:17:08.046Z,93.80
2018-08-20T10:19:11.043Z,95.10
2018-08-20T10:21:13.176Z,95.50
2018-08-20T10:23:15.339Z,95.30
2018-08-20T10:25:17.510Z,93.60
2018-08-20T10:27:19.681Z,92.40
2018-08-20T10:29:21.824Z,92.70
2018-08-20T10:31:24.002Z,91.30
2018-08-20T10:33:26.175Z,90.90
2018-08-20T10:35:28.342Z,89.50
2018-08-20T10:37:32.004Z,89.00
2018-08-20T10:39:34.088Z,89.50
2018-08-20T10:41:36.495Z,89.40
2018-08-20T10:43:38.695Z,88.30
2018-08-20T10:45:46.635Z,87.80
2018-08-20T10:47:49.258Z,88.20
2018-08-20T10:49:51.434Z,88.70
2018-08-20T10:51:53.623Z,87.70
2018-08-20T10:53:55.846Z,87.40
2018-08-20T10:55:58.003Z,88.50
2018-08-20T10:58:00.231Z,89.60
2018-08-20T11:00:02.454Z,90.80
2018-08-20T11:02:04.757Z,91.20
2018-08-20T11:04:06.866Z,92.00
2018-08-20T11:06:09.076Z,92.50
2018-08-20T11:08:11.241Z,93.30
2018-08-20T11:10:13.586Z,93.60
2018-08-20T11:12:16.394Z,93.40
2018-08-20T11:14:18.524Z,93.30
2018-08-20T11:16:20.691Z,93.30
2018-08-20T11:18:22.891Z,93.90
2018-08-20T11:20:24.979Z,92.60
2018-08-20T11:22:27.148Z,92.50
2018-08-20T11:24:29.301Z,91.70
2018-08-20T11:26:31.476Z,91.80
2018-08-20T11:28:33.714Z,91.40
2018-08-20T11:30:35.889Z,90.30
2018-08-20T11:32:38.092Z,89.80
2018-08-20T11:34:40.253Z,89.80
2018-08-20T11:36:43.552Z,89.90
2018-08-20T11:38:45.615Z,90.70
2018-08-20T11:40:47.757Z,90.50
2018-08-20T11:42:49.942Z,89.60
2018-08-20T11:44:52.142Z,87.80
2018-08-20T11:46:54.352Z,87.10
2018-08-20T11:48:56.539Z,86.70
2018-08-20T11:50:58.709Z,86.20
2018-08-20T11:53:00.866Z,87.10
2018-08-20T11:55:03.143Z,87.10
2018-08-20T11:57:05.427Z,85.80
2018-08-20T11:59:07.611Z,85.30
2018-08-20T12:01:09.686Z,83.50
2018-08-20T12:03:11.846Z,82.20
2018-08-20T12:05:14.015Z,81.00
2018-08-20T12:07:16.195Z,81.20
2018-08-20T12:09:18.365Z,82.50
2018-08-20T12:11:20.515Z,82.90
2018-08-20T12:13:22.858Z,82.20
2018-08-20T12:15:25.296Z,82.40
2018-08-20T12:17:27.487Z,82.40
2018-08-20T12:19:29.637Z,83.10
2018-08-20T12:21:31.790Z,82.10
2018-08-20T12:23:33.927Z,81.60
2018-08-20T12:25:36.098Z,82.00
2018-08-20T12:27:38.343Z,82.20
2018-08-20T12:29:40.664Z,82.00
2018-08-20T12:31:42.879Z,81.90
2018-08-20T12:33:45.178Z,82.90
2018-08-20T12:35:47.344Z,82.60
2018-08-20T12:37:49.514Z,82.60
2018-08-20T12:39:51.745Z,82.60
2018-08-20T12:41:53.866Z,82.50
2018-08-20T12:43:56.053Z,82.30
2018-08-20T12:45:58.267Z,82.10
2018-08-20T12:48:00.462Z,82.10
2018-08-20T12:50:02.723Z,83.30
2018-08-20T12:52:05.708Z,83.00
2018-08-20T12:54:07.863Z,82.30
2018-08-20T12:56:10.374Z,82.20
2018-08-20T12:58:12.606Z,81.90
2018-08-20T13:00:14.800Z,82.30
2018-08-20T13:02:16.982Z,82.00
2018-08-20T13:04:19.369Z,81.70
2018-08-20T13:06:21.541Z,80.40
2018-08-20T13:08:23.755Z,80.50
2018-08-20T13:10:25.906Z,80.90
2018-08-20T13:12:28.022Z,81.30
2018-08-20T13:14:30.147Z,81.20
2018-08-20T13:16:32.471Z,82.00
2018-08-20T13:18:34.632Z,81.20
2018-08-20T13:20:36.753Z,79.50
2018-08-20T13:22:38.890Z,79.00
2018-08-20T13:24:41.014Z,77.80
2018-08-20T13:26:44.077Z,78.50
2018-08-20T13:28:53.117Z,76.90
2018-08-20T13:30:55.270Z,75.50
2018-08-20T13:32:57.453Z,74.90
2018-08-20T13:34:59.657Z,75.50
2018-08-20T13:37:01.878Z,76.90
2018-08-20T13:39:05.766Z,77.00
2018-08-20T13:41:08.306Z,76.50
2018-08-20T13:43:11.119Z,75.60
2018-08-20T13:45:13.308Z,77.30
2018-08-20T13:47:15.603Z,77.00
2018-08-20T13:49:17.752Z,76.90
2018-08-20T13:51:20.010Z,77.00
2018-08-20T13:53:22.168Z,78.20
2018-08-20T13:55:24.376Z,78.00
2018-08-20T13:57:29.641Z,77.40
2018-08-20T13:59:31.809Z,77.30
2018-08-20T14:01:33.970Z,77.70
2018-08-20T14:03:36.115Z,78.20
2018-08-20T14:05:38.315Z,78.30
2018-08-20T14:07:40.596Z,78.90
2018-08-20T14:09:42.810Z,79.60
2018-08-20T14:11:44.973Z,79.40
2018-08-20T14:13:47.138Z,79.40
2018-08-20T14:15:49.289Z,79.80
2018-08-20T14:17:51.413Z,80.00
2018-08-20T14:19:53.566Z,80.00
2018-08-20T14:21:55.743Z,80.00
2018-08-20T14:23:57.926Z,79.90
2018-08-20T14:26:00.066Z,80.00
2018-08-20T14:28:02.221Z,79.70
2018-08-20T14:30:07.658Z,78.30
2018-08-20T14:32:09.805Z,78.10
2018-08-20T14:34:11.968Z,78.10
2018-08-20T14:36:14.123Z,78.20
2018-08-20T14:38:16.284Z,78.70
2018-08-20T14:40:18.579Z,79.50
2018-08-20T14:42:20.727Z,79.90
2018-08-20T14:44:22.859Z,80.30
2018-08-20T14:46:25.014Z,80.10
2018-08-20T14:48:27.222Z,80.00
2018-08-20T14:50:29.362Z,79.40
2018-08-20T14:52:31.530Z,79.20
2018-08-20T14:54:33.736Z,79.20
2018-08-20T14:56:35.858Z,78.80
2018-08-20T14:58:38.077Z,77.00
2018-08-20T15:00:40.590Z,75.00
2018-08-20T15:02:42.830Z,76.10
2018-08-20T15:04:44.954Z,75.60
2018-08-20T15:06:58.832Z,73.30
2018-08-20T15:09:01.022Z,70.30
2018-08-20T15:11:03.181Z,67.80
2018-08-20T15:13:05.385Z,67.10
2018-08-20T15:15:07.988Z,67.70
2018-08-20T15:17:10.042Z,66.60
2018-08-20T15:19:12.229Z,66.70
2018-08-20T15:21:14.395Z,68.00
2018-08-20T15:23:16.569Z,70.30
2018-08-20T15:25:18.775Z,71.70
2018-08-20T15:27:20.972Z,72.60
2018-08-20T15:29:23.141Z,73.10
2018-08-20T15:31:25.290Z,74.10
2018-08-20T15:33:27.530Z,74.50
2018-08-20T15:35:29.690Z,75.10
2018-08-20T15:37:31.861Z,75.70
2018-08-20T15:39:34.045Z,75.70
2018-08-20T15:41:36.422Z,75.70
2018-08-20T15:43:38.754Z,75.90
2018-08-20T15:45:40.902Z,76.50
2018-08-20T15:47:43.129Z,76.60
2018-08-20T15:49:45.282Z,77.30
2018-08-20T15:51:47.425Z,77.70
2018-08-20T15:53:49.607Z,77.90
2018-08-20T15:55:51.714Z,77.90
2018-08-20T15:57:53.872Z,78.30
2018-08-20T15:59:56.082Z,78.50
2018-08-20T16:01:58.252Z,78.50
2018-08-20T16:04:00.723Z,78.50
2018-08-20T16:06:03.010Z,78.70
2018-08-20T16:08:05.358Z,79.30
2018-08-20T16:10:09.623Z,79.30
2018-08-20T16:12:11.870Z,79.40
2018-08-20T16:14:14.001Z,79.70
2018-08-20T16:16:16.149Z,79.80
2018-08-20T16:18:18.290Z,79.80
2018-08-20T16:20:20.513Z,79.80
2018-08-20T16:22:22.655Z,79.90
2018-08-20T16:24:24.837Z,80.10
2018-08-20T16:26:26.998Z,80.10
2018-08-20T16:28:29.324Z,80.20
2018-08-20T16:30:31.441Z,79.90
2018-08-20T16:32:33.571Z,79.80
2018-08-20T16:34:35.686Z,79.30
2018-08-20T16:36:37.844Z,79.40
2018-08-20T16:38:40.009Z,79.40
2018-08-20T16:40:42.188Z,79.50
2018-08-20T16:42:44.350Z,79.50
2018-08-20T16:44:46.507Z,79.90
2018-08-20T16:46:48.673Z,80.40
2018-08-20T16:48:51.860Z,80.40
2018-08-20T16:50:54.040Z,80.80
2018-08-20T16:52:56.163Z,80.80
2018-08-20T16:54:58.578Z,80.80
2018-08-20T16:57:00.871Z,81.00
2018-08-20T16:59:03.071Z,80.60
2018-08-20T17:01:11.648Z,80.40
2018-08-20T17:03:13.856Z,80.70
2018-08-20T17:05:16.052Z,80.70
2018-08-20T17:07:18.184Z,80.70
2018-08-20T17:09:20.350Z,80.60
2018-08-20T17:11:22.500Z,80.70
2018-08-20T17:13:24.642Z,80.80
2018-08-20T17:15:26.891Z,81.00
2018-08-20T17:17:29.051Z,81.00
2018-08-20T17:19:31.214Z,81.00
2018-08-20T17:21:33.393Z,81.10
2018-08-20T17:23:36.150Z,81.00
2018-08-20T17:25:38.305Z,80.90
2018-08-20T17:27:45.030Z,81.10
2018-08-20T17:29:52.531Z,81.30
2018-08-20T17:31:54.686Z,81.60
2018-08-20T17:33:57.007Z,81.70
2018-08-20T17:35:59.227Z,82.10
2018-08-20T17:38:03.578Z,82.10
2018-08-20T17:40:07.597Z,82.20
2018-08-20T17:42:09.734Z,81.90
2018-08-20T17:44:11.861Z,82.00
2018-08-20T17:46:14.301Z,82.20
2018-08-20T17:48:22.042Z,82.20
2018-08-20T17:50:31.913Z,82.10
2018-08-20T17:52:36.033Z,82.30
2018-08-20T17:54:38.278Z,82.30
2018-08-20T17:56:40.430Z,82.40
2018-08-20T17:58:42.655Z,82.60
2018-08-20T18:00:50.526Z,82.50
2018-08-20T18:03:00.312Z,82.40
2018-08-20T18:05:02.534Z,82.40
2018-08-20T18:07:04.665Z,82.70
2018-08-20T18:09:06.795Z,82.70
2018-08-20T18:11:08.986Z,82.90
2018-08-20T18:13:11.974Z,83.10
2018-08-20T18:15:14.750Z,83.10
2018-08-20T18:17:17.115Z,83.30
2018-08-20T18:19:19.296Z,83.30
2018-08-20T18:21:21.473Z,83.20
2018-08-20T18:23:24.141Z,83.20
2018-08-20T18:25:30.859Z,83.50
2018-08-20T18:27:37.813Z,83.40
2018-08-20T18:29:40.013Z,83.50
2018-08-20T18:31:42.170Z,83.50
2018-08-20T18:33:44.388Z,83.60
2018-08-20T18:35:46.534Z,83.80
2018-08-20T18:37:50.801Z,83.70
2018-08-20T18:39:57.505Z,83.90
2018-08-20T18:42:03.589Z,83.70
2018-08-20T18:44:05.885Z,83.80
2018-08-20T18:46:08.270Z,84.80
2018-08-20T18:48:10.463Z,84.80
2018-08-20T18:50:12.711Z,84.50
2018-08-20T18:52:15.173Z,84.70
2018-08-20T18:54:17.430Z,84.40
2018-08-20T18:56:19.578Z,84.30
2018-08-20T18:58:22.364Z,84.40
2018-08-20T19:00:24.636Z,84.40
2018-08-20T19:02:37.273Z,84.50
2018-08-20T19:04:44.253Z,84.40
2018-08-20T19:06:49.067Z,84.70
2018-08-20T19:08:51.247Z,84.60
2018-08-20T19:10:53.422Z,84.70
2018-08-20T19:12:55.573Z,84.60
2018-08-20T19:14:57.811Z,84.70
2018-08-20T19:16:59.956Z,84.70
2018-08-20T19:19:02.105Z,84.80
2018-08-20T19:21:08.463Z,85.20
2018-08-20T19:23:10.610Z,85.20
2018-08-20T19:25:12.807Z,85.40
2018-08-20T19:27:15.046Z,85.30
2018-08-20T19:29:24.886Z,85.30
2018-08-20T19:31:27.030Z,85.20
2018-08-20T19:33:30.087Z,85.30
2018-08-20T19:35:32.226Z,85.20
2018-08-20T19:37:34.334Z,85.30
2018-08-20T19:39:36.493Z,85.50
2018-08-20T19:41:38.637Z,85.30
2018-08-20T19:43:50.073Z,85.50
2018-08-20T19:45:52.208Z,85.50
2018-08-20T19:47:54.450Z,85.60
2018-08-20T19:49:56.590Z,85.60
2018-08-20T19:51:58.751Z,85.70
2018-08-20T19:54:00.955Z,85.90
2018-08-20T19:56:03.098Z,85.80
2018-08-20T19:58:05.315Z,86.10
2018-08-20T20:00:10.944Z,86.60
2018-08-20T20:02:13.112Z,86.50
2018-08-20T20:04:15.895Z,86.60
2018-08-20T20:06:18.113Z,86.30
2018-08-20T20:08:20.320Z,86.60
2018-08-20T20:10:22.493Z,86.70
2018-08-20T20:12:24.692Z,86.80
2018-08-20T20:14:29.674Z,86.70
2018-08-20T20:16:37.242Z,86.80
2018-08-20T20:18:39.380Z,86.50
2018-08-20T20:20:41.526Z,86.60
2018-08-20T20:22:43.659Z,86.50
2018-08-20T20:24:45.781Z,86.60
2018-08-20T20:26:47.959Z,86.70
2018-08-20T20:28:50.095Z,86.90
2018-08-20T20:30:52.221Z,87.50
2018-08-20T20:32:54.373Z,87.00
2018-08-20T20:34:56.972Z,86.70
2018-08-20T20:36:59.162Z,86.70
2018-08-20T20:39:01.370Z,87.00
2018-08-20T20:41:03.547Z,87.10
2018-08-20T20:43:05.743Z,86.60
2018-08-20T20:45:07.948Z,86.70
2018-08-20T20:47:10.094Z,86.50
2018-08-20T20:49:12.626Z,86.80
2018-08-20T20:51:14.765Z,86.90
2018-08-20T20:53:17.154Z,87.30
2018-08-20T20:55:19.402Z,87.50
2018-08-20T20:57:21.530Z,87.50
2018-08-20T20:59:23.688Z,87.40
2018-08-20T21:01:25.846Z,87.40
2018-08-20T21:03:28.022Z,87.60
2018-08-20T21:05:30.357Z,87.50
2018-08-20T21:07:33.308Z,87.50
2018-08-20T21:09:48.635Z,87.40
2018-08-20T21:11:51.946Z,87.30
2018-08-20T21:13:54.149Z,87.90
2018-08-20T21:16:05.402Z,88.10
2018-08-20T21:18:10.362Z,88.00
2018-08-20T21:20:14.929Z,87.60
2018-08-20T21:22:17.092Z,87.60
2018-08-20T21:24:19.292Z,87.80
2018-08-20T21:26:21.454Z,87.60
2018-08-20T21:28:27.634Z,87.90
2018-08-20T21:30:34.661Z,88.00
2018-08-20T21:32:36.799Z,87.30
2018-08-20T21:34:40.639Z,86.70
2018-08-20T21:36:42.802Z,87.00
2018-08-20T21:38:44.993Z,86.60
2018-08-20T21:40:47.391Z,87.20
2018-08-20T21:42:49.594Z,87.50
2018-08-20T21:44:51.836Z,87.60
2018-08-20T21:46:54.021Z,87.90
2018-08-20T21:48:56.244Z,87.60
2018-08-20T21:51:01.474Z,87.10
2018-08-20T21:53:03.623Z,87.20
2018-08-20T21:55:06.325Z,87.30
2018-08-20T21:57:08.526Z,87.50
2018-08-20T21:59:10.673Z,87.30
2018-08-20T22:01:14.212Z,88.20
2018-08-20T22:03:16.393Z,88.00
2018-08-20T22:05:18.546Z,87.50
2018-08-20T22:07:20.846Z,87.20
2018-08-20T22:09:23.103Z,87.20
2018-08-20T22:11:25.329Z,87.20
2018-08-20T22:13:27.532Z,87.10
2018-08-20T22:15:29.748Z,87.20
2018-08-20T22:17:31.955Z,87.20
2018-08-20T22:19:34.103Z,87.40
2018-08-20T22:21:36.437Z,87.40
2018-08-20T22:23:39.630Z,88.00
2018-08-20T22:25:43.358Z,88.10
2018-08-20T22:27:51.362Z,88.50
2018-08-20T22:29:53.562Z,88.10
2018-08-20T22:31:56.010Z,87.90
2018-08-20T22:34:05.109Z,87.90
2018-08-20T22:36:08.206Z,87.80
2018-08-20T22:38:10.367Z,87.70
2018-08-20T22:40:12.606Z,87.70
2018-08-20T22:42:14.801Z,87.60
2018-08-20T22:44:16.978Z,87.90
2018-08-20T22:46:20.130Z,87.60
2018-08-20T22:48:22.304Z,87.90
2018-08-20T22:50:24.488Z,88.50
2018-08-20T22:52:26.679Z,88.50
2018-08-20T22:54:28.845Z,88.20
2018-08-20T22:56:33.189Z,88.00
2018-08-20T22:58:35.412Z,88.30
2018-08-20T23:00:37.693Z,88.00
2018-08-20T23:02:39.827Z,88.00
2018-08-20T23:04:42.002Z,87.90
2018-08-20T23:06:44.541Z,87.70
2018-08-20T23:08:46.759Z,87.70
2018-08-20T23:10:48.938Z,88.00
2018-08-20T23:12:51.118Z,87.80
2018-08-20T23:14:54.070Z,87.80
2018-08-20T23:16:56.310Z,88.00
2018-08-20T23:18:58.515Z,88.20
2018-08-20T23:21:00.656Z,88.60
2018-08-20T23:23:02.811Z,89.40
2018-08-20T23:25:05.086Z,90.80
2018-08-20T23:27:07.301Z,90.80
2018-08-20T23:29:10.179Z,90.10
2018-08-20T23:31:13.070Z,89.50
2018-08-20T23:33:15.230Z,89.40
2018-08-20T23:35:17.439Z,89.30
2018-08-20T23:37:19.634Z,89.10
2018-08-20T23:39:21.835Z,89.00
2018-08-20T23:41:24.018Z,88.70
2018-08-20T23:43:26.442Z,88.70
2018-08-20T23:45:28.666Z,88.90
2018-08-20T23:47:30.813Z,88.60
2018-08-20T23:49:33.173Z,88.50
2018-08-20T23:51:35.489Z,88.40
2018-08-20T23:53:37.666Z,88.50
2018-08-20T23:55:39.890Z,88.60
2018-08-20T23:57:42.047Z,88.70
2018-08-20T23:59:44.245Z,89.00
